Valinhos, Brazil
Current Conditions -  °F | °C
As of 8:00 PM on Friday 24 Oct 2014 (Local Time) from SBGW Reporting Station
Thunderstorm Thunderstorm  
Wind Chill: 82°   Ceiling: 2000
Heat Index: 82°   Visibility: 5mi
Dew Point: 59°   Wind: 3mph
Humidity: 45%   Direction: 40°NE
Pressure: NA   Gusts: NA
Location:  21.93°S, 45.18°W
Report Text: SBGW 242200Z 04003KT 8000 -TSRA BKN020 FEW025CB OVC067 28/15 Q1013
Loading
Personal Weather Stations






























Interactive Weather Map
Tropical Storm Tracking
New forecast layout! Learn more

10-Day Weather Forecast

Advertisements
Track Severe Weather on mobile